Time;durP1;ratioP1;P1;durP2;ratioP2;P2;SDS_P1;SDS_P2;PMS_P1;PMS_P2;Temp;Humidity;BMP_temperature;BMP_pressure;BME280_temperature;BME280_humidity;BME280_pressure;Samples;Min_cycle;Max_cycle;Signal;HPM_P1;HPM_P2
2023/04/18 00:00:31;;;;;;;112.70;64.45;;;15.40;71.80;;;;;;4998070;28;90084;-84
2023/04/18 00:02:57;;;;;;;113.07;63.85;;;15.40;72.10;;;;;;4999112;28;93292;-85
2023/04/18 00:05:22;;;;;;;110.43;63.50;;;15.30;72.00;;;;;;4997450;28;91922;-83
2023/04/18 00:07:48;;;;;;;113.28;63.83;;;15.30;72.00;;;;;;5010134;27;89546;-84
2023/04/18 00:10:14;;;;;;;113.45;64.28;;;15.30;71.90;;;;;;4996407;28;89487;-84
2023/04/18 00:12:40;;;;;;;111.18;64.22;;;15.30;72.00;;;;;;4995007;28;89937;-84
2023/04/18 00:15:08;;;;;;;114.00;64.07;;;15.30;72.10;;;;;;4998921;28;92693;-84
2023/04/18 00:17:34;;;;;;;112.47;64.05;;;15.30;72.20;;;;;;4995511;28;89258;-84
2023/04/18 00:20:07;;;;;;;109.38;63.42;;;15.30;72.10;;;;;;4991365;28;89978;-84
2023/04/18 00:22:33;;;;;;;111.13;62.67;;;15.30;72.30;;;;;;4998158;28;93609;-84
2023/04/18 00:24:58;;;;;;;110.68;64.57;;;15.30;72.20;;;;;;4996702;28;90767;-84
2023/04/18 00:27:25;;;;;;;111.93;63.65;;;15.30;72.10;;;;;;4995356;28;90570;-84
2023/04/18 00:29:50;;;;;;;108.60;63.65;;;15.30;72.00;;;;;;4998073;28;89568;-84
2023/04/18 00:32:16;;;;;;;110.55;63.35;;;15.20;72.00;;;;;;4997896;28;89246;-85
2023/04/18 00:34:42;;;;;;;110.07;62.90;;;15.30;72.00;;;;;;4999038;28;92946;-84
2023/04/18 00:37:08;;;;;;;112.32;64.00;;;15.20;72.10;;;;;;4992787;28;89500;-84
2023/04/18 00:39:34;;;;;;;111.28;63.03;;;15.20;72.20;;;;;;4995486;28;89033;-84
2023/04/18 00:42:03;;;;;;;110.65;63.35;;;15.20;72.10;;;;;;5001972;28;93061;-84
2023/04/18 00:44:32;;;;;;;111.15;64.10;;;15.20;72.10;;;;;;4999511;28;93948;-84
2023/04/18 00:46:58;;;;;;;114.57;64.03;;;15.20;73.00;;;;;;4993374;28;90485;-84
2023/04/18 00:49:24;;;;;;;109.53;62.88;;;15.20;72.30;;;;;;4994527;28;89760;-84
2023/04/18 00:51:50;;;;;;;112.18;64.45;;;15.10;72.00;;;;;;4998636;28;92954;-84
2023/04/18 00:54:17;;;;;;;111.03;63.35;;;15.20;72.50;;;;;;4990861;28;92801;-83
2023/04/18 00:56:44;;;;;;;113.05;64.57;;;15.20;72.20;;;;;;5005619;27;89315;-84
2023/04/18 00:59:10;;;;;;;110.75;64.03;;;15.10;72.10;;;;;;4997114;28;90903;-85
2023/04/18 01:01:39;;;;;;;112.97;64.25;;;15.10;72.20;;;;;;4994239;28;92324;-84
2023/04/18 01:04:05;;;;;;;112.57;64.22;;;15.20;72.10;;;;;;4990043;28;97484;-84
2023/04/18 01:06:31;;;;;;;112.50;64.13;;;15.10;72.30;;;;;;5003861;27;90975;-85
2023/04/18 01:08:57;;;;;;;107.93;63.38;;;15.10;72.10;;;;;;5013364;27;89160;-84
2023/04/18 01:11:23;;;;;;;111.60;64.32;;;15.10;72.30;;;;;;5001278;28;93358;-85
2023/04/18 01:14:03;;;;;;;109.47;63.20;;;15.10;72.30;;;;;;4999592;28;94214;-84
2023/04/18 01:16:33;;;;;;;112.80;63.77;;;15.10;72.30;;;;;;4997521;28;89369;-84
2023/04/18 01:19:00;;;;;;;112.15;64.25;;;15.10;72.30;;;;;;4995204;28;90031;-84
2023/04/18 01:21:30;;;;;;;111.35;63.83;;;15.10;72.10;;;;;;4996358;28;93076;-84
2023/04/18 01:24:10;;;;;;;112.03;64.70;;;15.10;72.20;;;;;;4999953;28;92781;-85
2023/04/18 01:26:36;;;;;;;112.97;66.07;;;15.10;72.30;;;;;;4994710;28;89745;-85
2023/04/18 01:29:02;;;;;;;110.75;63.88;;;15.10;72.10;;;;;;4992945;28;88703;-84
2023/04/18 01:31:28;;;;;;;112.20;65.03;;;15.00;72.10;;;;;;4997207;28;92741;-84
2023/04/18 01:33:53;;;;;;;112.47;65.93;;;15.10;72.80;;;;;;5001348;28;93195;-84
2023/04/18 01:36:19;;;;;;;113.25;64.88;;;15.00;72.10;;;;;;4998909;28;91037;-85
2023/04/18 01:38:45;;;;;;;110.40;63.78;;;15.00;71.80;;;;;;4997991;28;95340;-84
2023/04/18 01:41:10;;;;;;;110.57;64.63;;;15.00;72.00;;;;;;4998854;28;92172;-85
2023/04/18 01:43:36;;;;;;;112.20;64.95;;;15.00;72.00;;;;;;4995872;28;92634;-85
2023/04/18 01:46:02;;;;;;;112.28;64.57;;;15.00;71.90;;;;;;4995727;28;89417;-84
2023/04/18 01:48:27;;;;;;;112.53;64.93;;;15.00;72.00;;;;;;4995524;28;89517;-84
2023/04/18 01:50:53;;;;;;;113.35;64.43;;;15.00;72.10;;;;;;4995902;28;92969;-84
2023/04/18 01:53:19;;;;;;;110.22;64.68;;;15.00;72.20;;;;;;4994261;28;89637;-84
2023/04/18 01:55:44;;;;;;;109.30;64.10;;;15.00;72.30;;;;;;4997676;28;89304;-84
2023/04/18 01:58:10;;;;;;;111.05;65.13;;;15.00;72.30;;;;;;4998739;28;88925;-84
2023/04/18 02:00:36;;;;;;;110.00;64.35;;;15.00;72.30;;;;;;4994485;28;91470;-84
2023/04/18 02:03:01;;;;;;;111.10;64.22;;;15.00;73.00;;;;;;4996400;28;93595;-84
2023/04/18 02:05:27;;;;;;;109.85;64.05;;;15.00;72.30;;;;;;5000359;28;89587;-84
2023/04/18 02:07:53;;;;;;;112.32;64.25;;;15.00;72.30;;;;;;4997357;28;89263;-84
2023/04/18 02:10:20;;;;;;;110.50;65.57;;;14.90;72.30;;;;;;4995588;28;93115;-84
2023/04/18 02:12:45;;;;;;;112.75;64.82;;;15.00;72.20;;;;;;4995880;28;93197;-83
2023/04/18 02:15:11;;;;;;;110.68;64.60;;;14.90;72.20;;;;;;5000078;28;89129;-85
2023/04/18 02:17:37;;;;;;;110.93;65.18;;;14.90;72.30;;;;;;4996610;28;89722;-85
2023/04/18 02:20:03;;;;;;;113.43;65.68;;;14.90;72.20;;;;;;5001365;28;93505;-84
2023/04/18 02:22:29;;;;;;;111.25;65.78;;;14.90;72.20;;;;;;4999137;28;93734;-85
2023/04/18 02:24:54;;;;;;;111.28;65.05;;;14.90;72.20;;;;;;4994036;28;91162;-85
2023/04/18 02:27:20;;;;;;;112.18;65.00;;;14.90;72.30;;;;;;5010811;27;89490;-84
2023/04/18 02:29:46;;;;;;;113.13;65.40;;;14.90;72.20;;;;;;4996776;28;92788;-85
2023/04/18 02:32:12;;;;;;;110.88;64.63;;;14.90;72.30;;;;;;4995833;28;93296;-85
2023/04/18 02:34:38;;;;;;;112.13;65.00;;;14.90;72.20;;;;;;4996278;28;90332;-85
2023/04/18 02:37:04;;;;;;;111.35;64.05;;;14.90;72.20;;;;;;4990825;28;90000;-85
2023/04/18 02:39:30;;;;;;;110.97;64.85;;;14.80;72.20;;;;;;4994316;28;92602;-85
2023/04/18 02:41:55;;;;;;;110.32;64.25;;;14.80;72.20;;;;;;4991845;28;92362;-84
2023/04/18 02:44:21;;;;;;;110.53;63.92;;;14.90;72.20;;;;;;4994086;28;89671;-85
2023/04/18 02:46:47;;;;;;;111.03;64.57;;;14.80;72.80;;;;;;4989834;28;89419;-85
2023/04/18 02:49:13;;;;;;;110.90;65.13;;;14.80;72.10;;;;;;4991865;28;93095;-85
2023/04/18 02:51:38;;;;;;;110.55;65.10;;;14.80;72.10;;;;;;4988766;28;93492;-85
2023/04/18 02:54:04;;;;;;;111.57;64.32;;;14.80;72.10;;;;;;4995125;28;89229;-84
2023/04/18 02:56:30;;;;;;;110.72;64.75;;;14.80;72.10;;;;;;4990533;28;89664;-85
2023/04/18 02:58:55;;;;;;;110.07;64.40;;;14.80;72.10;;;;;;4991733;28;90560;-85
2023/04/18 03:01:21;;;;;;;110.70;64.97;;;14.80;72.20;;;;;;4994664;28;94454;-84
2023/04/18 03:03:47;;;;;;;113.25;65.20;;;14.80;72.20;;;;;;4994062;28;89351;-85
2023/04/18 03:06:12;;;;;;;108.53;64.07;;;14.80;72.10;;;;;;4994942;28;91641;-84
2023/04/18 03:08:38;;;;;;;110.57;64.80;;;14.80;72.10;;;;;;4989617;28;93014;-84
2023/04/18 03:11:04;;;;;;;109.55;65.28;;;14.80;72.10;;;;;;4988754;28;92307;-85
2023/04/18 03:13:29;;;;;;;107.68;63.85;;;14.80;72.20;;;;;;4991038;28;93378;-84
2023/04/18 03:15:55;;;;;;;109.80;64.45;;;14.70;72.10;;;;;;4987422;28;94557;-84
2023/04/18 03:18:21;;;;;;;110.63;64.18;;;14.80;72.10;;;;;;4990930;28;94221;-84
2023/04/18 03:20:46;;;;;;;110.13;64.22;;;14.70;72.80;;;;;;4987545;28;92057;-85
2023/04/18 03:23:12;;;;;;;109.10;64.50;;;14.70;72.80;;;;;;4990138;28;90656;-85
2023/04/18 03:25:37;;;;;;;110.55;64.72;;;14.70;72.10;;;;;;4990930;28;90165;-85
2023/04/18 03:28:03;;;;;;;109.75;64.05;;;14.70;72.10;;;;;;4991664;28;89739;-85
2023/04/18 03:30:29;;;;;;;109.82;64.35;;;14.70;72.00;;;;;;4994803;28;93382;-84
2023/04/18 03:32:55;;;;;;;108.25;63.22;;;14.70;72.10;;;;;;4991925;28;89301;-85
2023/04/18 03:35:20;;;;;;;109.28;63.60;;;14.70;72.00;;;;;;4990724;28;89656;-84
2023/04/18 03:37:46;;;;;;;110.60;64.30;;;14.70;72.10;;;;;;5006521;27;94450;-86
2023/04/18 03:40:12;;;;;;;109.65;64.60;;;14.70;72.10;;;;;;4990849;28;93445;-84
2023/04/18 03:42:37;;;;;;;109.30;64.10;;;14.70;72.10;;;;;;4992481;28;90175;-85
2023/04/18 03:45:03;;;;;;;109.00;63.88;;;14.60;72.00;;;;;;4990191;28;89824;-84
2023/04/18 03:47:30;;;;;;;110.50;64.60;;;14.60;72.10;;;;;;4990823;28;94258;-86
2023/04/18 03:49:56;;;;;;;107.93;63.67;;;14.60;72.20;;;;;;4992278;28;90320;-86
2023/04/18 03:52:22;;;;;;;110.63;64.38;;;14.60;72.30;;;;;;4993670;28;89694;-84
2023/04/18 03:54:47;;;;;;;106.57;62.83;;;14.60;72.30;;;;;;4995532;28;91382;-84
2023/04/18 03:57:13;;;;;;;108.80;64.15;;;14.60;72.30;;;;;;4999036;28;92603;-84
2023/04/18 03:59:39;;;;;;;107.65;62.67;;;14.60;72.40;;;;;;4991287;28;92802;-84
2023/04/18 04:02:05;;;;;;;108.38;63.97;;;14.60;72.30;;;;;;4999390;28;90217;-85
2023/04/18 04:04:31;;;;;;;109.65;63.90;;;14.60;72.30;;;;;;4999361;28;92245;-84
2023/04/18 04:06:56;;;;;;;108.47;62.78;;;14.60;72.10;;;;;;4992642;28;95320;-84
2023/04/18 04:09:22;;;;;;;108.80;63.42;;;14.50;72.20;;;;;;4997950;28;92670;-85
2023/04/18 04:11:48;;;;;;;110.72;63.58;;;14.60;72.10;;;;;;4999101;28;89938;-85
2023/04/18 04:14:14;;;;;;;111.03;63.10;;;14.60;72.20;;;;;;4993050;28;90678;-85
2023/04/18 04:16:40;;;;;;;111.40;63.10;;;14.60;72.10;;;;;;4996648;28;89675;-84
2023/04/18 04:19:05;;;;;;;107.50;62.75;;;14.60;72.10;;;;;;4999399;28;90711;-84
2023/04/18 04:21:31;;;;;;;108.68;63.72;;;14.50;72.00;;;;;;5000380;28;91469;-84
2023/04/18 04:23:57;;;;;;;111.57;62.50;;;14.50;72.10;;;;;;5004587;28;90023;-84
2023/04/18 04:26:25;;;;;;;109.95;63.10;;;14.60;72.40;;;;;;5010360;27;93240;-86
2023/04/18 04:28:52;;;;;;;113.18;63.67;;;14.50;72.00;;;;;;4998976;28;92496;-84
2023/04/18 04:31:18;;;;;;;108.55;63.83;;;14.50;71.90;;;;;;4995076;28;89401;-85
2023/04/18 04:33:44;;;;;;;109.07;63.35;;;14.50;72.00;;;;;;4995854;28;90113;-84
2023/04/18 04:36:13;;;;;;;108.28;62.78;;;14.50;72.00;;;;;;4990497;28;92313;-85
2023/04/18 04:38:39;;;;;;;111.53;63.45;;;14.50;71.90;;;;;;4994498;28;92140;-84
2023/04/18 04:41:06;;;;;;;106.97;62.10;;;14.50;72.10;;;;;;4992674;28;90205;-84
2023/04/18 04:43:32;;;;;;;108.18;62.95;;;14.50;72.10;;;;;;4996298;28;89945;-85
2023/04/18 04:45:59;;;;;;;107.97;63.13;;;14.50;72.10;;;;;;4998115;28;89819;-84
2023/04/18 04:48:25;;;;;;;107.15;63.03;;;14.50;72.10;;;;;;5001137;28;91981;-85
2023/04/18 04:50:53;;;;;;;107.18;61.97;;;14.50;72.20;;;;;;4995965;28;90397;-85
2023/04/18 04:53:19;;;;;;;105.90;62.47;;;14.50;72.20;;;;;;4997728;28;89520;-84
2023/04/18 04:55:45;;;;;;;106.90;62.60;;;14.50;72.10;;;;;;4998504;28;92055;-86
2023/04/18 04:58:10;;;;;;;106.97;62.55;;;14.40;71.90;;;;;;4998376;28;93049;-83
2023/04/18 05:00:36;;;;;;;106.70;61.38;;;14.40;72.10;;;;;;5000653;28;89416;-85
2023/04/18 05:03:02;;;;;;;108.45;62.15;;;14.40;72.40;;;;;;5012154;28;90515;-84
2023/04/18 05:05:28;;;;;;;110.93;63.03;;;14.40;72.50;;;;;;5001526;28;93466;-84
2023/04/18 05:07:54;;;;;;;108.28;63.78;;;14.40;72.80;;;;;;5000466;28;89693;-85
2023/04/18 05:10:20;;;;;;;109.82;63.92;;;14.40;72.90;;;;;;4996096;28;91283;-84
2023/04/18 05:12:46;;;;;;;113.38;63.95;;;14.40;73.00;;;;;;5000610;28;90138;-85
2023/04/18 05:15:14;;;;;;;111.88;63.28;;;14.40;73.30;;;;;;4997896;28;93532;-84
2023/04/18 05:17:39;;;;;;;111.32;63.95;;;14.40;73.60;;;;;;5000864;28;92939;-86
2023/04/18 05:20:05;;;;;;;108.55;63.10;;;14.40;73.80;;;;;;4994202;28;90398;-85
2023/04/18 05:22:31;;;;;;;110.75;63.55;;;14.40;73.90;;;;;;5001664;28;90636;-85
2023/04/18 05:24:57;;;;;;;109.50;64.03;;;14.40;73.70;;;;;;4994095;28;93583;-84
2023/04/18 05:27:23;;;;;;;108.75;63.90;;;14.40;73.40;;;;;;4996523;28;90440;-84
2023/04/18 05:29:49;;;;;;;109.40;63.20;;;14.40;73.40;;;;;;4995675;28;89199;-84
2023/04/18 05:32:15;;;;;;;108.07;64.28;;;14.40;73.20;;;;;;4995206;28;88852;-84
2023/04/18 05:34:41;;;;;;;114.50;64.20;;;14.30;72.90;;;;;;4997338;28;93364;-85
2023/04/18 05:37:07;;;;;;;109.40;63.88;;;14.30;72.80;;;;;;4993946;28;93367;-86
2023/04/18 05:39:32;;;;;;;113.00;64.90;;;14.30;72.70;;;;;;4996775;28;93053;-85
2023/04/18 05:41:58;;;;;;;118.53;65.38;;;14.30;73.60;;;;;;5002051;28;94228;-85
2023/04/18 05:44:24;;;;;;;116.60;64.55;;;14.40;74.10;;;;;;4994072;28;93008;-84
2023/04/18 05:46:50;;;;;;;113.82;64.07;;;14.30;74.60;;;;;;4998580;28;92557;-85
2023/04/18 05:49:20;;;;;;;118.78;64.28;;;14.40;75.10;;;;;;5002030;28;89552;-84
2023/04/18 05:51:48;;;;;;;112.45;63.83;;;14.30;74.70;;;;;;5002807;28;89804;-85
2023/04/18 05:54:17;;;;;;;117.22;63.10;;;14.30;74.70;;;;;;4996738;28;91177;-84
2023/04/18 05:56:43;;;;;;;112.13;63.78;;;14.30;74.50;;;;;;4992045;28;92550;-84
2023/04/18 05:59:09;;;;;;;113.15;64.28;;;14.30;74.20;;;;;;4999366;28;89575;-84
2023/04/18 06:01:35;;;;;;;112.95;64.28;;;14.30;74.30;;;;;;4996393;28;92573;-84
2023/04/18 06:04:00;;;;;;;112.65;63.50;;;14.30;74.10;;;;;;4992668;28;90979;-85
2023/04/18 06:06:26;;;;;;;118.43;63.33;;;14.30;74.10;;;;;;4997170;28;92476;-84
2023/04/18 06:08:53;;;;;;;113.63;63.65;;;14.30;74.20;;;;;;5000827;28;89309;-84
2023/04/18 06:11:21;;;;;;;113.00;63.22;;;14.30;74.00;;;;;;4995630;28;89450;-84
2023/04/18 06:13:47;;;;;;;109.68;63.08;;;14.30;74.00;;;;;;5004649;28;92517;-84
2023/04/18 06:16:13;;;;;;;110.80;62.78;;;14.30;74.00;;;;;;4993648;28;90201;-85
2023/04/18 06:18:38;;;;;;;109.60;62.05;;;14.30;73.90;;;;;;4999168;28;89303;-85
2023/04/18 06:21:04;;;;;;;113.13;63.17;;;14.40;74.00;;;;;;5000750;28;91494;-84
2023/04/18 06:23:30;;;;;;;107.95;61.72;;;14.30;73.90;;;;;;4998129;28;92519;-84
2023/04/18 06:25:56;;;;;;;108.68;62.00;;;14.30;73.90;;;;;;5000223;28;89482;-84
2023/04/18 06:28:22;;;;;;;108.57;61.67;;;14.30;73.90;;;;;;4995347;28;93073;-84
2023/04/18 06:30:47;;;;;;;107.68;61.83;;;14.30;73.80;;;;;;4998580;28;89204;-84
2023/04/18 06:33:13;;;;;;;108.57;61.88;;;14.30;73.70;;;;;;5002524;28;93236;-84
2023/04/18 06:35:39;;;;;;;108.75;61.67;;;14.30;73.90;;;;;;4999282;28;92880;-84
2023/04/18 06:38:04;;;;;;;108.13;61.15;;;14.30;73.70;;;;;;4999674;28;90388;-84
2023/04/18 06:40:30;;;;;;;105.38;60.90;;;14.30;73.50;;;;;;5000561;28;89362;-84
2023/04/18 06:42:56;;;;;;;109.80;61.33;;;14.40;73.70;;;;;;5001387;28;92710;-84
2023/04/18 06:45:21;;;;;;;107.60;60.85;;;14.40;73.70;;;;;;4998112;28;92276;-84
2023/04/18 06:47:48;;;;;;;108.03;60.78;;;14.40;73.50;;;;;;4999088;28;89765;-85
2023/04/18 06:50:14;;;;;;;107.18;61.13;;;14.30;73.50;;;;;;4998527;28;89251;-84
2023/04/18 06:52:43;;;;;;;107.82;61.13;;;14.30;73.60;;;;;;4998816;28;91544;-85
2023/04/18 06:55:09;;;;;;;106.53;61.33;;;14.30;73.60;;;;;;4998393;28;92871;-84
2023/04/18 06:57:36;;;;;;;108.85;61.17;;;14.40;73.60;;;;;;4997264;28;89303;-85
2023/04/18 07:00:03;;;;;;;106.18;60.38;;;14.40;73.50;;;;;;5000245;28;89243;-84
2023/04/18 07:02:29;;;;;;;104.10;60.55;;;14.40;73.40;;;;;;5001267;28;92055;-84
2023/04/18 07:04:55;;;;;;;108.28;60.13;;;14.40;73.40;;;;;;4993821;28;92626;-84
2023/04/18 07:07:21;;;;;;;104.10;61.10;;;14.40;73.40;;;;;;4992991;28;89557;-85
2023/04/18 07:09:48;;;;;;;108.35;60.97;;;14.40;73.40;;;;;;4996646;28;91493;-84
2023/04/18 07:12:14;;;;;;;102.47;59.15;;;14.40;73.40;;;;;;4997778;28;92442;-85
2023/04/18 07:14:39;;;;;;;105.07;60.38;;;14.40;73.40;;;;;;4998100;28;92545;-85
2023/04/18 07:17:05;;;;;;;104.63;59.95;;;14.40;73.40;;;;;;4997937;28;90686;-84
2023/04/18 07:19:31;;;;;;;106.75;60.67;;;14.40;73.30;;;;;;4999573;28;89391;-84
2023/04/18 07:21:56;;;;;;;103.28;59.83;;;14.40;73.20;;;;;;4994785;28;90884;-85
2023/04/18 07:24:25;;;;;;;103.30;59.63;;;14.40;74.00;;;;;;5000785;28;89912;-85
2023/04/18 07:26:51;;;;;;;103.88;59.13;;;14.40;73.20;;;;;;5001193;28;90890;-84
2023/04/18 07:29:18;;;;;;;103.65;59.20;;;14.40;73.10;;;;;;5000588;28;89335;-84
2023/04/18 07:31:44;;;;;;;105.05;59.90;;;14.40;73.10;;;;;;5002104;28;89577;-84
2023/04/18 07:34:10;;;;;;;102.60;59.13;;;14.40;73.00;;;;;;5007261;28;92288;-84
2023/04/18 07:36:36;;;;;;;102.13;58.92;;;14.40;73.00;;;;;;4998536;28;89275;-84
2023/04/18 07:39:02;;;;;;;103.57;59.28;;;14.40;73.00;;;;;;5001044;28;89312;-84
2023/04/18 07:41:28;;;;;;;103.57;58.28;;;14.40;72.90;;;;;;4997230;28;91491;-85
2023/04/18 07:43:53;;;;;;;103.68;59.15;;;14.40;73.00;;;;;;5005494;28;96504;-84
2023/04/18 07:46:19;;;;;;;104.05;59.00;;;14.40;72.90;;;;;;5003256;28;90938;-84
2023/04/18 07:48:45;;;;;;;104.07;58.95;;;14.40;72.80;;;;;;4998049;28;89413;-84
2023/04/18 07:51:11;;;;;;;102.50;58.50;;;14.50;72.90;;;;;;4998790;28;92206;-84
2023/04/18 07:53:36;;;;;;;103.22;58.63;;;14.40;72.80;;;;;;5000180;28;92477;-84
2023/04/18 07:56:02;;;;;;;102.32;58.67;;;14.40;72.90;;;;;;4995762;28;93784;-84
2023/04/18 07:58:28;;;;;;;102.43;59.10;;;14.50;72.80;;;;;;5000570;28;88393;-84
2023/04/18 08:00:54;;;;;;;102.05;58.72;;;14.50;72.70;;;;;;5000773;28;92460;-84
2023/04/18 08:03:19;;;;;;;100.47;57.90;;;14.50;72.70;;;;;;5001606;28;92667;-84
2023/04/18 08:05:45;;;;;;;101.50;58.45;;;14.50;72.60;;;;;;4994282;28;90220;-86
2023/04/18 08:08:11;;;;;;;102.07;57.33;;;14.50;72.50;;;;;;4996860;28;89987;-84
2023/04/18 08:10:38;;;;;;;101.05;58.08;;;14.50;72.80;;;;;;5004549;28;90249;-84
2023/04/18 08:13:03;;;;;;;101.20;58.60;;;14.50;72.60;;;;;;4998512;28;92247;-85
2023/04/18 08:15:31;;;;;;;102.80;58.42;;;14.50;72.60;;;;;;4999106;28;90763;-84
2023/04/18 08:17:57;;;;;;;99.90;57.45;;;14.50;72.60;;;;;;5001227;28;89188;-84
2023/04/18 08:20:23;;;;;;;101.38;58.30;;;14.50;72.50;;;;;;5004422;28;93315;-85
2023/04/18 08:22:49;;;;;;;103.25;58.35;;;14.50;72.60;;;;;;4999102;28;92800;-85
2023/04/18 08:25:16;;;;;;;100.85;57.72;;;14.50;72.50;;;;;;5004076;28;89269;-84
2023/04/18 08:27:42;;;;;;;99.75;57.55;;;14.50;72.50;;;;;;4997694;28;90868;-85
2023/04/18 08:30:09;;;;;;;102.55;58.13;;;14.50;72.60;;;;;;4997481;28;91777;-85
2023/04/18 08:32:37;;;;;;;101.00;57.92;;;14.60;72.70;;;;;;5001350;28;95605;-85
2023/04/18 08:35:03;;;;;;;102.00;57.95;;;14.60;72.50;;;;;;5001926;28;94730;-84
2023/04/18 08:37:30;;;;;;;101.90;57.45;;;14.50;72.40;;;;;;4995992;28;90663;-84
2023/04/18 08:39:56;;;;;;;100.18;57.08;;;14.50;72.60;;;;;;4996453;28;89815;-85
2023/04/18 08:42:22;;;;;;;98.85;57.08;;;14.60;72.70;;;;;;5002324;28;92901;-84
2023/04/18 08:44:48;;;;;;;99.60;57.42;;;14.60;72.60;;;;;;4999835;28;89239;-84
2023/04/18 08:47:15;;;;;;;101.20;57.75;;;14.60;72.50;;;;;;5002230;28;88646;-84
2023/04/18 08:49:41;;;;;;;99.90;57.42;;;14.60;72.40;;;;;;4998258;28;91211;-86
2023/04/18 08:52:12;;;;;;;100.38;57.30;;;14.60;72.50;;;;;;4999894;28;92218;-84
2023/04/18 08:54:41;;;;;;;;;;;14.60;72.40;;;;;;5003734;28;89985;-84
2023/04/18 08:57:12;;;;;;;100.20;56.78;;;14.60;72.50;;;;;;5002885;28;89429;-84
2023/04/18 08:59:38;;;;;;;100.10;57.05;;;14.60;72.30;;;;;;5001593;28;93730;-85
2023/04/18 09:02:07;;;;;;;99.13;57.25;;;14.60;72.40;;;;;;4999165;28;90281;-85
2023/04/18 09:04:44;;;;;;;100.60;56.78;;;14.60;72.40;;;;;;4999666;28;93942;-85
2023/04/18 09:07:13;;;;;;;98.95;56.55;;;14.60;72.50;;;;;;5000704;28;89198;-84
2023/04/18 09:09:52;;;;;;;98.88;56.83;;;14.60;73.00;;;;;;5003408;28;92341;-84
2023/04/18 09:12:21;;;;;;;99.72;56.85;;;14.60;72.00;;;;;;5003621;28;92634;-84
2023/04/18 09:14:49;;;;;;;99.13;56.72;;;14.60;72.10;;;;;;5001998;28;89329;-84
2023/04/18 09:17:36;;;;;;;98.68;56.83;;;14.70;72.40;;;;;;5001793;28;89624;-84
2023/04/18 09:20:04;;;;;;;98.65;56.20;;;14.70;72.20;;;;;;4997757;28;91010;-84
2023/04/18 09:22:53;;;;;;;100.40;56.35;;;14.70;72.10;;;;;;4998285;28;93868;-85
2023/04/18 09:25:27;;;;;;;102.20;56.67;;;14.70;72.10;;;;;;5000775;28;89341;-84
2023/04/18 09:27:59;;;;;;;98.72;56.28;;;14.80;72.20;;;;;;4990155;28;89806;-84
2023/04/18 09:30:35;;;;;;;97.95;56.33;;;14.80;72.00;;;;;;4998629;28;89121;-84
2023/04/18 09:33:03;;;;;;;99.25;55.90;;;14.80;71.90;;;;;;4998698;28;89772;-85
2023/04/18 09:35:29;;;;;;;98.47;56.00;;;14.80;71.90;;;;;;4996682;28;89482;-84
2023/04/18 09:37:55;;;;;;;99.75;56.42;;;14.80;71.90;;;;;;5004682;28;89096;-85
2023/04/18 09:40:22;;;;;;;100.65;56.70;;;14.80;71.70;;;;;;5006521;28;92064;-85
2023/04/18 09:42:51;;;;;;;98.97;56.55;;;14.80;71.90;;;;;;5007098;28;90195;-85
2023/04/18 09:45:17;;;;;;;100.18;56.80;;;14.90;71.70;;;;;;5001068;28;93206;-85
2023/04/18 09:47:42;;;;;;;99.85;56.30;;;14.90;71.50;;;;;;4997091;28;89452;-84
2023/04/18 09:50:09;;;;;;;99.65;56.35;;;14.90;71.60;;;;;;5000644;28;91731;-84
2023/04/18 09:52:36;;;;;;;99.63;56.00;;;14.90;71.60;;;;;;5001174;28;89904;-84
2023/04/18 09:55:05;;;;;;;101.25;56.55;;;14.90;71.60;;;;;;4998508;28;89261;-85
2023/04/18 09:57:32;;;;;;;99.78;56.22;;;15.00;71.70;;;;;;5002065;28;89508;-85
2023/04/18 10:00:12;;;;;;;98.90;56.45;;;15.00;71.50;;;;;;4998904;28;89837;-84
2023/04/18 10:03:03;;;;;;;100.25;56.17;;;15.00;71.60;;;;;;4995958;28;89787;-85
2023/04/18 10:05:34;;;;;;;100.05;56.53;;;15.00;71.50;;;;;;4995313;28;92455;-84
2023/04/18 10:08:00;;;;;;;101.03;56.28;;;15.00;71.40;;;;;;4993908;28;89572;-84
2023/04/18 10:10:26;;;;;;;100.07;56.30;;;15.10;71.50;;;;;;4994400;28;90725;-84
2023/04/18 10:12:56;;;;;;;100.40;56.40;;;15.10;71.40;;;;;;4996308;28;92349;-84
2023/04/18 10:15:27;;;;;;;99.17;55.83;;;15.10;71.40;;;;;;4992496;28;89572;-84
2023/04/18 10:17:56;;;;;;;99.43;55.63;;;15.10;71.50;;;;;;4994881;28;89457;-85
2023/04/18 10:20:27;;;;;;;99.25;56.00;;;15.10;71.40;;;;;;4995179;28;92758;-84
2023/04/18 10:22:54;;;;;;;99.47;56.00;;;15.10;71.30;;;;;;4996192;28;89561;-84
2023/04/18 10:25:37;;;;;;;99.63;56.15;;;15.10;71.40;;;;;;4991960;28;91039;-84
2023/04/18 10:28:05;;;;;;;98.45;55.83;;;15.10;71.40;;;;;;4995289;28;88165;-84
2023/04/18 10:30:40;;;;;;;99.60;56.28;;;15.20;71.40;;;;;;4997048;28;92795;-84
2023/04/18 10:33:23;;;;;;;98.63;55.85;;;15.10;71.40;;;;;;4994228;28;89448;-83
2023/04/18 10:36:15;;;;;;;98.60;55.88;;;15.20;71.50;;;;;;4994541;28;93449;-84
2023/04/18 10:38:48;;;;;;;98.43;55.67;;;15.20;71.60;;;;;;4997323;28;90061;-84
2023/04/18 10:41:22;;;;;;;98.68;56.10;;;15.20;71.60;;;;;;4998456;28;89720;-84
2023/04/18 10:46:52;;;;;;;98.10;55.83;;;15.20;71.70;;;;;;4997080;28;90858;-84
2023/04/18 10:49:28;;;;;;;99.80;56.15;;;15.30;71.60;;;;;;4982927;28;89345;-84
2023/04/18 10:51:57;;;;;;;100.40;55.88;;;15.30;71.50;;;;;;4999440;28;92511;-85
2023/04/18 10:54:45;;;;;;;102.18;56.55;;;15.30;71.60;;;;;;4996752;28;92464;-84
2023/04/18 10:57:12;;;;;;;100.85;56.00;;;15.30;71.50;;;;;;4999639;28;89572;-85
2023/04/18 10:59:41;;;;;;;100.13;56.15;;;15.30;71.60;;;;;;4997791;28;92571;-84
2023/04/18 11:02:28;;;;;;;100.28;55.63;;;15.30;71.50;;;;;;4996822;28;93022;-84
2023/04/18 11:05:05;;;;;;;98.20;55.72;;;15.30;71.50;;;;;;4997099;28;93740;-84
2023/04/18 11:07:40;;;;;;;100.13;56.05;;;15.30;71.60;;;;;;4993656;28;95508;-84
2023/04/18 11:10:08;;;;;;;98.88;55.72;;;15.40;71.50;;;;;;5000773;28;89740;-84
2023/04/18 11:12:35;;;;;;;100.65;55.88;;;15.40;71.50;;;;;;4999655;28;93295;-84
2023/04/18 11:15:08;;;;;;;99.80;55.70;;;15.30;71.50;;;;;;4994077;28;89997;-84
2023/04/18 11:17:34;;;;;;;98.75;55.97;;;15.40;71.70;;;;;;4998124;28;90866;-84
2023/04/18 11:20:12;;;;;;;99.55;56.20;;;15.40;71.60;;;;;;4994360;28;91072;-84
2023/04/18 11:22:47;;;;;;;98.43;55.88;;;15.40;71.50;;;;;;5002140;28;90447;-84
2023/04/18 11:25:16;;;;;;;97.28;55.35;;;15.40;71.50;;;;;;4996065;28;93096;-84
2023/04/18 11:27:48;;;;;;;99.50;55.85;;;15.40;71.40;;;;;;4992863;28;90419;-84
2023/04/18 11:30:15;;;;;;;100.90;55.90;;;15.40;71.40;;;;;;5013024;27;89361;-84
2023/04/18 11:32:40;;;;;;;98.53;55.85;;;15.50;71.50;;;;;;4999636;28;93096;-84
2023/04/18 11:35:11;;;;;;;98.28;55.25;;;15.50;71.50;;;;;;4997906;28;92688;-84
2023/04/18 11:37:38;;;;;;;100.07;56.47;;;15.40;71.40;;;;;;4999044;28;89050;-84
2023/04/18 11:40:07;;;;;;;99.97;56.13;;;15.50;71.50;;;;;;4994888;28;89528;-84
2023/04/18 11:42:34;;;;;;;100.32;56.22;;;15.50;71.60;;;;;;4995156;28;92823;-84
2023/04/18 11:45:00;;;;;;;100.55;56.75;;;15.50;71.50;;;;;;5000426;28;92951;-84
2023/04/18 11:47:29;;;;;;;98.75;55.70;;;15.50;71.40;;;;;;4997374;28;89256;-83
2023/04/18 11:50:00;;;;;;;100.18;56.55;;;15.50;71.40;;;;;;5011497;27;92277;-84
2023/04/18 11:52:27;;;;;;;99.05;55.92;;;15.50;71.30;;;;;;4999156;28;93885;-84
2023/04/18 11:54:53;;;;;;;100.78;56.72;;;15.50;71.40;;;;;;4994967;28;90875;-84
2023/04/18 11:57:27;;;;;;;99.40;55.45;;;15.50;71.50;;;;;;4995766;28;89147;-84
2023/04/18 11:59:55;;;;;;;101.90;55.90;;;15.50;71.50;;;;;;4994253;28;89341;-84
2023/04/18 12:02:41;;;;;;;99.57;55.83;;;15.60;71.60;;;;;;5009413;27;92448;-84
2023/04/18 12:05:09;;;;;;;99.72;55.97;;;15.60;71.60;;;;;;4995835;28;92725;-84
2023/04/18 12:07:43;;;;;;;98.65;55.83;;;15.60;71.50;;;;;;4992659;28;90315;-84
2023/04/18 12:10:28;;;;;;;99.40;55.60;;;15.60;71.60;;;;;;4997379;28;89746;-84
2023/04/18 12:12:59;;;;;;;100.07;56.20;;;15.60;71.60;;;;;;4998893;28;92235;-84
2023/04/18 12:15:27;;;;;;;98.70;55.72;;;15.60;71.60;;;;;;5000279;28;92850;-83
2023/04/18 12:17:58;;;;;;;99.90;55.80;;;15.60;71.60;;;;;;4999720;28;90528;-84
2023/04/18 12:20:24;;;;;;;99.90;55.75;;;15.60;71.60;;;;;;5000345;28;90023;-84
2023/04/18 12:22:50;;;;;;;100.70;56.03;;;15.60;71.60;;;;;;4995396;28;92825;-84
2023/04/18 12:25:22;;;;;;;99.25;55.55;;;15.70;71.60;;;;;;4999366;28;92522;-85